Time;durP1;ratioP1;P1;durP2;ratioP2;P2;SDS_P1;SDS_P2;PMS_P1;PMS_P2;Temp;Humidity;BMP_temperature;BMP_pressure;BME280_temperature;BME280_humidity;BME280_pressure;Samples;Min_cycle;Max_cycle;Signal;HPM_P1;HPM_P2
2021/03/11 00:02:16;;;;;;;14.50;9.88;;;;;;;;;;5035787;28;20025;-79
2021/03/11 00:04:44;;;;;;;14.63;11.52;;;;;;;;;;5035764;28;20091;-77
2021/03/11 00:07:10;;;;;;;16.08;10.93;;;;;;;;;;5035718;28;20017;-83
2021/03/11 00:09:36;;;;;;;15.77;12.07;;;;;;;;;;5035412;28;20097;-82
2021/03/11 00:12:03;;;;;;;18.55;12.73;;;;;;;;;;5035500;28;20124;-81
2021/03/11 00:14:30;;;;;;;18.50;13.43;;;;;;;;;;5035507;28;20033;-81
2021/03/11 00:16:56;;;;;;;17.85;12.00;;;;;;;;;;5035440;28;20350;-83
2021/03/11 00:19:22;;;;;;;18.85;11.25;;;;;;;;;;5035395;28;20026;-81
2021/03/11 00:21:48;;;;;;;17.92;13.10;;;;;;;;;;5035572;28;20034;-83
2021/03/11 00:24:15;;;;;;;18.33;12.57;;;;;;;;;;5035242;28;20026;-81
2021/03/11 00:26:42;;;;;;;17.73;12.45;;;;;;;;;;5035470;28;20056;-84
2021/03/11 00:29:08;;;;;;;22.08;13.25;;;;;;;;;;5035373;28;20033;-80
2021/03/11 00:31:34;;;;;;;17.38;11.07;;;;;;;;;;5035115;28;20034;-79
2021/03/11 00:34:00;;;;;;;18.33;13.43;;;;;;;;;;5035215;28;20026;-81
2021/03/11 00:36:26;;;;;;;17.17;12.43;;;;;;;;;;5035624;28;20025;-80
2021/03/11 00:38:53;;;;;;;19.33;12.40;;;;;;;;;;5035153;28;20030;-80
2021/03/11 00:41:19;;;;;;;15.02;10.95;;;;;;;;;;5034884;28;20049;-81
2021/03/11 00:43:45;;;;;;;18.30;11.93;;;;;;;;;;5035028;28;20057;-78
2021/03/11 00:46:11;;;;;;;17.27;11.60;;;;;;;;;;5035098;28;20021;-81
2021/03/11 00:48:37;;;;;;;14.60;11.05;;;;;;;;;;5034972;28;20057;-84
2021/03/11 00:51:04;;;;;;;16.75;11.65;;;;;;;;;;5034741;28;20052;-83
2021/03/11 00:53:30;;;;;;;19.23;13.20;;;;;;;;;;5034843;28;20033;-80
2021/03/11 00:55:56;;;;;;;18.17;12.35;;;;;;;;;;5034819;28;20036;-80
2021/03/11 00:58:22;;;;;;;19.08;12.55;;;;;;;;;;5034895;28;20052;-82
2021/03/11 01:00:48;;;;;;;17.42;12.73;;;;;;;;;;5034585;28;20024;-80
2021/03/11 01:03:14;;;;;;;17.58;13.35;;;;;;;;;;5034712;28;20021;-79
2021/03/11 01:05:41;;;;;;;16.63;12.38;;;;;;;;;;5034603;28;20108;-79
2021/03/11 01:08:07;;;;;;;16.50;11.30;;;;;;;;;;5034623;28;20083;-78
2021/03/11 01:10:34;;;;;;;14.68;10.25;;;;;;;;;;5032868;28;20103;-81
2021/03/11 01:13:00;;;;;;;16.33;12.35;;;;;;;;;;5034582;28;20029;-79
2021/03/11 01:15:27;;;;;;;16.52;11.75;;;;;;;;;;5034534;28;20025;-84
2021/03/11 01:17:53;;;;;;;19.52;12.20;;;;;;;;;;5033172;28;20376;-78
2021/03/11 01:20:20;;;;;;;19.42;12.05;;;;;;;;;;5034267;28;20512;-82
2021/03/11 01:22:46;;;;;;;17.33;12.02;;;;;;;;;;5034231;28;20025;-80
2021/03/11 01:25:13;;;;;;;18.88;12.73;;;;;;;;;;5034055;28;20104;-80
2021/03/11 01:27:39;;;;;;;19.13;12.88;;;;;;;;;;5034258;28;20033;-82
2021/03/11 01:30:06;;;;;;;17.15;11.43;;;;;;;;;;5034308;28;20108;-83
2021/03/11 01:32:32;;;;;;;15.68;12.20;;;;;;;;;;5034078;28;20037;-83
2021/03/11 01:34:58;;;;;;;19.58;13.10;;;;;;;;;;5033661;28;20029;-83
2021/03/11 01:37:25;;;;;;;16.02;11.40;;;;;;;;;;5033496;28;20558;-79
2021/03/11 01:39:51;;;;;;;20.52;13.07;;;;;;;;;;5034039;28;20033;-79
2021/03/11 01:42:17;;;;;;;19.30;12.60;;;;;;;;;;5034110;28;20034;-80
2021/03/11 01:44:43;;;;;;;19.50;12.30;;;;;;;;;;5033865;28;20029;-83
2021/03/11 01:47:09;;;;;;;15.38;11.32;;;;;;;;;;5033910;28;20030;-85
2021/03/11 01:49:35;;;;;;;21.67;14.18;;;;;;;;;;5033886;28;20029;-83
2021/03/11 01:52:02;;;;;;;17.42;12.32;;;;;;;;;;5033636;28;20033;-82
2021/03/11 01:54:30;;;;;;;19.65;12.73;;;;;;;;;;5033778;28;20028;-81
2021/03/11 01:56:56;;;;;;;18.95;12.68;;;;;;;;;;5033228;28;20096;-81
2021/03/11 01:59:22;;;;;;;20.77;12.77;;;;;;;;;;5033630;28;20041;-80
2021/03/11 02:01:48;;;;;;;19.85;13.05;;;;;;;;;;5033760;28;20029;-84
2021/03/11 02:04:14;;;;;;;18.55;12.88;;;;;;;;;;5033635;28;20029;-81
2021/03/11 02:06:41;;;;;;;18.90;11.00;;;;;;;;;;5033739;28;20029;-82
2021/03/11 02:09:07;;;;;;;17.25;12.65;;;;;;;;;;5033557;28;20033;-82
2021/03/11 02:11:34;;;;;;;18.73;13.18;;;;;;;;;;5033303;28;20069;-79
2021/03/11 02:14:00;;;;;;;20.17;13.13;;;;;;;;;;5033727;28;20105;-82
2021/03/11 02:16:36;;;;;;;19.98;13.20;;;;;;;;;;5033501;28;20017;-80
2021/03/11 02:19:02;;;;;;;19.13;12.88;;;;;;;;;;5033570;28;20502;-80
2021/03/11 02:21:28;;;;;;;21.02;14.30;;;;;;;;;;5033444;28;20100;-82
2021/03/11 02:24:13;;;;;;;19.73;13.27;;;;;;;;;;5033343;28;20531;-82
2021/03/11 02:26:58;;;;;;;23.27;13.88;;;;;;;;;;5033488;28;20032;-83
2021/03/11 02:29:24;;;;;;;;;;;;;;;;;;5033800;28;20045;-81
2021/03/11 02:31:50;;;;;;;17.60;12.18;;;;;;;;;;5033266;28;19983;-79
2021/03/11 02:34:21;;;;;;;20.33;14.02;;;;;;;;;;5032203;28;20547;-82
2021/03/11 02:36:49;;;;;;;19.00;12.63;;;;;;;;;;5033386;28;20030;-80
2021/03/11 02:39:17;;;;;;;18.73;11.40;;;;;;;;;;5033294;28;20022;-84
2021/03/11 02:41:44;;;;;;;20.55;13.75;;;;;;;;;;5031994;28;20025;-83
2021/03/11 02:44:11;;;;;;;20.10;14.57;;;;;;;;;;5033349;28;20029;-80
2021/03/11 02:46:38;;;;;;;20.15;14.05;;;;;;;;;;5033289;28;20052;-84
2021/03/11 02:49:05;;;;;;;20.13;13.43;;;;;;;;;;5033113;28;20022;-82
2021/03/11 02:51:43;;;;;;;16.17;13.35;;;;;;;;;;5031903;28;20095;-82
2021/03/11 02:54:15;;;;;;;20.60;14.32;;;;;;;;;;5031764;28;20026;-83
2021/03/11 02:56:48;;;;;;;22.17;14.38;;;;;;;;;;5016571;28;20033;-84
2021/03/11 02:59:15;;;;;;;18.42;12.73;;;;;;;;;;5033118;28;20037;-79
2021/03/11 03:01:42;;;;;;;22.92;13.88;;;;;;;;;;5033129;28;20500;-81
2021/03/11 03:04:11;;;;;;;21.10;13.57;;;;;;;;;;5031890;28;20021;-78
2021/03/11 03:06:38;;;;;;;23.67;15.18;;;;;;;;;;5033093;28;20026;-83
2021/03/11 03:09:05;;;;;;;21.50;13.80;;;;;;;;;;5033048;28;20029;-81
2021/03/11 03:11:31;;;;;;;18.02;12.25;;;;;;;;;;5036575;28;20055;-82
2021/03/11 03:13:57;;;;;;;18.35;12.40;;;;;;;;;;5036741;28;20030;-84
2021/03/11 03:16:24;;;;;;;22.02;14.77;;;;;;;;;;5036724;28;20383;-81
2021/03/11 03:18:50;;;;;;;19.33;13.23;;;;;;;;;;5035403;28;20378;-82
2021/03/11 03:21:16;;;;;;;21.65;14.35;;;;;;;;;;5036550;28;20065;-80
2021/03/11 03:23:43;;;;;;;22.55;14.50;;;;;;;;;;5036505;28;20033;-81
2021/03/11 03:26:09;;;;;;;19.73;13.25;;;;;;;;;;5036465;28;20028;-82
2021/03/11 03:28:36;;;;;;;19.15;12.73;;;;;;;;;;5036423;28;20064;-81
2021/03/11 03:31:02;;;;;;;20.15;14.13;;;;;;;;;;5036315;28;20392;-80
2021/03/11 03:33:28;;;;;;;20.05;13.23;;;;;;;;;;5036405;28;20048;-86
2021/03/11 03:35:54;;;;;;;19.05;13.27;;;;;;;;;;5036444;28;20415;-78
2021/03/11 03:38:21;;;;;;;19.23;12.65;;;;;;;;;;5036330;28;20025;-81
2021/03/11 03:40:47;;;;;;;17.38;12.05;;;;;;;;;;5036291;28;20041;-81
2021/03/11 03:43:20;;;;;;;16.73;12.52;;;;;;;;;;5036190;28;20095;-81
2021/03/11 03:46:04;;;;;;;20.20;13.23;;;;;;;;;;5036135;28;20029;-83
2021/03/11 03:48:33;;;;;;;17.50;12.18;;;;;;;;;;5036283;28;20534;-81
2021/03/11 03:50:59;;;;;;;18.58;12.48;;;;;;;;;;5036188;28;20041;-81
2021/03/11 03:53:27;;;;;;;17.10;12.60;;;;;;;;;;5034738;28;20029;-84
2021/03/11 03:55:55;;;;;;;18.35;11.80;;;;;;;;;;5036009;28;20025;-84
2021/03/11 03:58:22;;;;;;;15.38;10.52;;;;;;;;;;5036172;28;20033;-79
2021/03/11 04:00:48;;;;;;;17.88;11.98;;;;;;;;;;5035995;28;20025;-78
2021/03/11 04:03:15;;;;;;;16.35;11.85;;;;;;;;;;5035709;28;20428;-85
2021/03/11 04:05:42;;;;;;;18.20;11.82;;;;;;;;;;5035909;28;20029;-79
2021/03/11 04:08:08;;;;;;;16.23;11.05;;;;;;;;;;5035854;28;20554;-80
2021/03/11 04:10:35;;;;;;;16.77;12.02;;;;;;;;;;5035492;28;20420;-82
2021/03/11 04:13:01;;;;;;;17.27;11.43;;;;;;;;;;5035597;28;20472;-79
2021/03/11 04:15:27;;;;;;;16.45;10.65;;;;;;;;;;5035725;28;20033;-79
2021/03/11 04:17:54;;;;;;;16.48;11.30;;;;;;;;;;5035616;28;20028;-77
2021/03/11 04:20:20;;;;;;;17.05;11.02;;;;;;;;;;5035073;28;20087;-79
2021/03/11 04:22:46;;;;;;;16.83;10.90;;;;;;;;;;5035619;28;20025;-80
2021/03/11 04:25:12;;;;;;;17.25;11.55;;;;;;;;;;5035185;28;20059;-80
2021/03/11 04:27:39;;;;;;;15.60;11.05;;;;;;;;;;5035504;28;20079;-78
2021/03/11 04:30:06;;;;;;;14.77;9.45;;;;;;;;;;5035158;28;20056;-79
2021/03/11 04:32:33;;;;;;;14.48;10.70;;;;;;;;;;5035275;28;20033;-82
2021/03/11 04:34:59;;;;;;;14.07;11.18;;;;;;;;;;5035354;28;20025;-83
2021/03/11 04:37:26;;;;;;;17.27;11.50;;;;;;;;;;5035423;28;20524;-79
2021/03/11 04:39:52;;;;;;;15.38;9.52;;;;;;;;;;5035324;28;20026;-84
2021/03/11 04:42:18;;;;;;;17.27;12.18;;;;;;;;;;5035168;28;20864;-81
2021/03/11 04:44:44;;;;;;;16.58;11.02;;;;;;;;;;5033725;28;20037;-80
2021/03/11 04:47:12;;;;;;;14.27;11.30;;;;;;;;;;5034849;28;20043;-81
2021/03/11 04:49:38;;;;;;;15.93;11.52;;;;;;;;;;5035182;28;20071;-80
2021/03/11 04:52:05;;;;;;;18.48;10.73;;;;;;;;;;5034997;28;20041;-80
2021/03/11 04:54:31;;;;;;;17.25;11.75;;;;;;;;;;5035052;28;20068;-83
2021/03/11 04:56:57;;;;;;;17.13;12.23;;;;;;;;;;5034871;28;20029;-84
2021/03/11 04:59:23;;;;;;;12.73;9.07;;;;;;;;;;5034742;28;20030;-83
2021/03/11 05:01:53;;;;;;;14.73;11.05;;;;;;;;;;5034834;28;20030;-84
2021/03/11 05:04:20;;;;;;;14.77;11.13;;;;;;;;;;5034727;28;20446;-80
2021/03/11 05:06:46;;;;;;;13.90;10.65;;;;;;;;;;5034596;28;20030;-86
2021/03/11 05:09:12;;;;;;;15.63;11.07;;;;;;;;;;5034489;28;20402;-83
2021/03/11 05:11:38;;;;;;;15.48;11.10;;;;;;;;;;5034286;28;20049;-81
2021/03/11 05:14:04;;;;;;;13.98;10.45;;;;;;;;;;5034249;28;20032;-80
2021/03/11 05:16:30;;;;;;;16.10;11.50;;;;;;;;;;5034515;28;20109;-79
2021/03/11 05:18:56;;;;;;;16.15;12.60;;;;;;;;;;5034271;28;20461;-79
2021/03/11 05:21:23;;;;;;;19.92;14.93;;;;;;;;;;5034427;28;20546;-84
2021/03/11 05:23:49;;;;;;;15.50;10.50;;;;;;;;;;5034311;28;20021;-79
2021/03/11 05:26:15;;;;;;;21.30;11.95;;;;;;;;;;5034282;28;20448;-83
2021/03/11 05:28:41;;;;;;;16.63;11.05;;;;;;;;;;5034162;28;20095;-83
2021/03/11 05:31:07;;;;;;;17.48;10.20;;;;;;;;;;5034160;28;20064;-83
2021/03/11 05:33:33;;;;;;;18.00;12.52;;;;;;;;;;5033392;28;20037;-78
2021/03/11 05:35:59;;;;;;;17.77;12.27;;;;;;;;;;5034097;28;20477;-80
2021/03/11 05:38:25;;;;;;;16.17;12.13;;;;;;;;;;5034123;28;20029;-82
2021/03/11 05:40:53;;;;;;;18.75;12.50;;;;;;;;;;5033906;28;20176;-79
2021/03/11 05:43:19;;;;;;;17.13;11.68;;;;;;;;;;5033937;28;20381;-78
2021/03/11 05:45:46;;;;;;;18.38;11.73;;;;;;;;;;5033975;28;20022;-83
2021/03/11 05:48:16;;;;;;;16.42;11.35;;;;;;;;;;5033834;28;20033;-79
2021/03/11 05:50:44;;;;;;;17.70;13.88;;;;;;;;;;5032553;28;20137;-83
2021/03/11 05:53:12;;;;;;;16.73;11.25;;;;;;;;;;5032471;28;20108;-84
2021/03/11 05:55:41;;;;;;;18.92;12.82;;;;;;;;;;5034073;28;20476;-83
2021/03/11 05:58:08;;;;;;;16.88;13.05;;;;;;;;;;5040149;28;20084;-79
2021/03/11 06:00:34;;;;;;;17.45;12.20;;;;;;;;;;5029886;28;20052;-83
2021/03/11 06:03:01;;;;;;;19.05;12.65;;;;;;;;;;5051902;28;20021;-80
2021/03/11 06:05:27;;;;;;;19.58;12.90;;;;;;;;;;5053559;28;20373;-86
2021/03/11 06:07:53;;;;;;;21.92;13.57;;;;;;;;;;5053283;28;20025;-80
2021/03/11 06:10:20;;;;;;;15.68;12.27;;;;;;;;;;5035170;28;20076;-81
2021/03/11 06:12:47;;;;;;;17.90;12.40;;;;;;;;;;5048236;28;20033;-80
2021/03/11 06:15:13;;;;;;;20.52;13.95;;;;;;;;;;5044687;28;20115;-79
2021/03/11 06:17:40;;;;;;;21.30;11.82;;;;;;;;;;5037325;28;20469;-82
2021/03/11 06:20:10;;;;;;;21.38;13.55;;;;;;;;;;5053177;28;20052;-79
2021/03/11 06:22:37;;;;;;;23.67;15.95;;;;;;;;;;5051980;28;20036;-85
2021/03/11 06:25:22;;;;;;;19.38;11.93;;;;;;;;;;5053194;28;20036;-77
2021/03/11 06:27:48;;;;;;;;;;;;;;;;;;5046378;28;20032;-84
2021/03/11 06:30:33;;;;;;;22.10;14.25;;;;;;;;;;5034283;28;19913;-82
2021/03/11 06:32:59;;;;;;;;;;;;;;;;;;5038001;28;20430;-79
2021/03/11 06:35:25;;;;;;;25.63;15.80;;;;;;;;;;5043853;28;20008;-79
2021/03/11 06:37:51;;;;;;;20.58;14.57;;;;;;;;;;5035115;28;20026;-80
2021/03/11 06:40:19;;;;;;;21.98;13.38;;;;;;;;;;5050955;28;20107;-81
2021/03/11 06:42:46;;;;;;;18.73;13.55;;;;;;;;;;5044131;28;20155;-78
2021/03/11 06:45:30;;;;;;;16.55;10.85;;;;;;;;;;5038815;28;20484;-79
2021/03/11 06:48:15;;;;;;;18.73;10.98;;;;;;;;;;5046177;28;20087;-78
2021/03/11 06:50:41;;;;;;;;;;;;;;;;;;5047473;28;20040;-79
2021/03/11 06:53:07;;;;;;;17.70;13.23;;;;;;;;;;5023806;28;19909;-80
2021/03/11 06:55:33;;;;;;;20.00;14.38;;;;;;;;;;5040803;28;20391;-81
2021/03/11 06:58:15;;;;;;;16.33;10.45;;;;;;;;;;5034464;28;20060;-82
2021/03/11 07:00:41;;;;;;;19.30;13.88;;;;;;;;;;5034141;28;20040;-81
2021/03/11 07:03:07;;;;;;;23.88;15.27;;;;;;;;;;5034463;28;20033;-83
2021/03/11 07:05:37;;;;;;;16.60;12.68;;;;;;;;;;5034238;28;20492;-75
2021/03/11 07:08:04;;;;;;;20.27;12.88;;;;;;;;;;5033858;28;20051;-80
2021/03/11 07:10:30;;;;;;;17.08;11.05;;;;;;;;;;5033959;28;20064;-79
2021/03/11 07:12:58;;;;;;;17.38;13.57;;;;;;;;;;5034183;28;20053;-77
2021/03/11 07:15:24;;;;;;;22.23;13.85;;;;;;;;;;5034016;28;20370;-76
2021/03/11 07:17:51;;;;;;;18.67;12.55;;;;;;;;;;5034105;28;20033;-80
2021/03/11 07:20:19;;;;;;;16.00;12.02;;;;;;;;;;5049427;28;20029;-80
2021/03/11 07:23:09;;;;;;;15.90;11.85;;;;;;;;;;5022316;28;20354;-77
2021/03/11 07:25:53;;;;;;;16.73;12.32;;;;;;;;;;5013200;28;20044;-81
2021/03/11 07:28:38;;;;;;;14.68;10.43;;;;;;;;;;5033322;28;20032;-82
2021/03/11 07:31:04;;;;;;;13.77;10.32;;;;;;;;;;5053748;28;20044;-82
2021/03/11 07:33:32;;;;;;;15.07;11.45;;;;;;;;;;5037188;28;20449;-85
2021/03/11 07:35:59;;;;;;;15.23;11.18;;;;;;;;;;5038068;28;20036;-81
2021/03/11 07:38:26;;;;;;;16.77;12.80;;;;;;;;;;5049037;28;20124;-80
2021/03/11 07:40:59;;;;;;;15.75;11.32;;;;;;;;;;5038829;28;20033;-79
2021/03/11 07:43:27;;;;;;;15.18;10.63;;;;;;;;;;5033741;28;20029;-79
2021/03/11 07:46:14;;;;;;;17.80;12.23;;;;;;;;;;5033253;28;20131;-82
2021/03/11 07:48:41;;;;;;;19.13;14.63;;;;;;;;;;5033595;28;20030;-82
2021/03/11 07:51:07;;;;;;;14.10;10.57;;;;;;;;;;5032763;28;20079;-83
2021/03/11 07:53:33;;;;;;;16.38;11.52;;;;;;;;;;5031960;28;20449;-80
2021/03/11 07:56:03;;;;;;;14.95;11.65;;;;;;;;;;5032777;28;20040;-80
2021/03/11 07:58:29;;;;;;;14.40;10.88;;;;;;;;;;5026547;28;20029;-80
2021/03/11 08:00:55;;;;;;;19.15;12.65;;;;;;;;;;5022477;28;20087;-80
2021/03/11 08:03:21;;;;;;;21.95;13.73;;;;;;;;;;5033506;28;20076;-80
2021/03/11 08:05:48;;;;;;;12.13;9.60;;;;;;;;;;5032581;28;20026;-84
2021/03/11 08:08:14;;;;;;;13.95;10.80;;;;;;;;;;5033019;28;20151;-80
2021/03/11 08:10:41;;;;;;;14.43;8.88;;;;;;;;;;5030631;28;20519;-82
2021/03/11 08:13:26;;;;;;;13.18;10.30;;;;;;;;;;5031819;28;20049;-80
2021/03/11 08:15:52;;;;;;;12.43;9.20;;;;;;;;;;5032751;28;20244;-80
2021/03/11 08:18:33;;;;;;;14.38;10.30;;;;;;;;;;5036412;28;20029;-81
2021/03/11 08:21:03;;;;;;;12.52;9.30;;;;;;;;;;5037195;28;20028;-79
2021/03/11 08:23:30;;;;;;;11.85;9.60;;;;;;;;;;5032860;28;20037;-79
2021/03/11 08:25:56;;;;;;;12.85;8.85;;;;;;;;;;5032857;28;20033;-79
2021/03/11 08:28:23;;;;;;;13.75;9.20;;;;;;;;;;5033541;28;20060;-83
2021/03/11 08:30:56;;;;;;;12.23;8.63;;;;;;;;;;5032485;28;20033;-78
2021/03/11 08:33:22;;;;;;;11.20;8.68;;;;;;;;;;5032981;28;20114;-81
2021/03/11 08:35:50;;;;;;;12.02;9.90;;;;;;;;;;5043523;28;20033;-83
2021/03/11 08:38:22;;;;;;;13.18;9.48;;;;;;;;;;5052824;28;20029;-82
2021/03/11 08:40:54;;;;;;;13.82;9.73;;;;;;;;;;5052224;28;20024;-81
2021/03/11 08:43:39;;;;;;;11.98;9.43;;;;;;;;;;5049646;28;20032;-83
2021/03/11 08:46:09;;;;;;;11.90;9.30;;;;;;;;;;5046885;28;20029;-78
2021/03/11 08:48:42;;;;;;;13.30;8.77;;;;;;;;;;5052431;28;20048;-80
2021/03/11 08:51:15;;;;;;;14.77;9.20;;;;;;;;;;5051011;28;20431;-79
2021/03/11 08:53:42;;;;;;;13.75;10.20;;;;;;;;;;5052114;28;20032;-81
2021/03/11 08:56:27;;;;;;;13.23;9.75;;;;;;;;;;5052329;28;20027;-84
2021/03/11 08:58:54;;;;;;;17.15;13.07;;;;;;;;;;5050653;28;20420;-80
2021/03/11 09:01:39;;;;;;;11.07;8.88;;;;;;;;;;5038215;28;20030;-84
2021/03/11 09:04:05;;;;;;;;;;;;;;;;;;5035983;28;20041;-83
2021/03/11 09:06:50;;;;;;;13.10;9.27;;;;;;;;;;5037578;28;19908;-81
2021/03/11 09:09:16;;;;;;;18.30;13.68;;;;;;;;;;5031451;28;20092;-81
2021/03/11 09:11:55;;;;;;;9.77;7.82;;;;;;;;;;5037082;28;20065;-84
2021/03/11 09:14:24;;;;;;;17.23;12.95;;;;;;;;;;5037778;28;20139;-83
2021/03/11 09:16:51;;;;;;;14.02;9.80;;;;;;;;;;5036577;28;20033;-79
2021/03/11 09:19:17;;;;;;;11.05;8.98;;;;;;;;;;5051885;28;20047;-81
2021/03/11 09:21:44;;;;;;;11.32;8.57;;;;;;;;;;5051612;28;20029;-80
2021/03/11 09:24:17;;;;;;;14.80;11.15;;;;;;;;;;5051837;28;20499;-81
2021/03/11 09:26:43;;;;;;;10.68;7.10;;;;;;;;;;5051468;28;20048;-81
2021/03/11 09:29:11;;;;;;;12.50;9.48;;;;;;;;;;5043799;28;20029;-77
2021/03/11 09:31:39;;;;;;;12.57;10.32;;;;;;;;;;5034828;28;20026;-83
2021/03/11 09:34:05;;;;;;;11.65;8.93;;;;;;;;;;5036981;28;20049;-80
2021/03/11 09:36:31;;;;;;;16.42;11.77;;;;;;;;;;5031430;28;20026;-82
2021/03/11 09:39:05;;;;;;;18.88;13.23;;;;;;;;;;5041965;28;20102;-82
2021/03/11 09:41:31;;;;;;;19.25;13.07;;;;;;;;;;5051590;28;20029;-69
2021/03/11 09:44:02;;;;;;;13.32;8.60;;;;;;;;;;5051332;28;20029;-81
2021/03/11 09:46:28;;;;;;;11.15;8.43;;;;;;;;;;5045671;28;20029;-79
2021/03/11 09:48:56;;;;;;;8.77;5.97;;;;;;;;;;5030889;28;20377;-82
2021/03/11 09:51:24;;;;;;;12.90;9.65;;;;;;;;;;5031555;28;20029;-79
2021/03/11 09:54:08;;;;;;;10.60;7.38;;;;;;;;;;5031856;28;20030;-83
2021/03/11 09:56:38;;;;;;;10.30;6.83;;;;;;;;;;5032117;28;20026;-80
2021/03/11 09:59:12;;;;;;;10.63;7.78;;;;;;;;;;5030647;28;20168;-80
2021/03/11 10:01:39;;;;;;;12.10;8.85;;;;;;;;;;5032058;28;20105;-82
2021/03/11 10:04:24;;;;;;;10.50;7.97;;;;;;;;;;5032075;28;20108;-80
2021/03/11 10:06:51;;;;;;;8.93;6.47;;;;;;;;;;5031791;28;20017;-83
2021/03/11 10:09:18;;;;;;;8.90;6.18;;;;;;;;;;5031946;28;20052;-86
2021/03/11 10:11:45;;;;;;;13.98;10.70;;;;;;;;;;5030727;28;20057;-83
2021/03/11 10:14:18;;;;;;;13.00;9.68;;;;;;;;;;5045852;28;20472;-81
2021/03/11 10:16:48;;;;;;;9.68;7.70;;;;;;;;;;5043590;28;20021;-82
2021/03/11 10:19:27;;;;;;;9.80;8.23;;;;;;;;;;5051022;28;20033;-83
2021/03/11 10:22:01;;;;;;;11.13;7.60;;;;;;;;;;5024164;28;20040;-84
2021/03/11 10:24:49;;;;;;;9.40;7.63;;;;;;;;;;5029243;28;20915;-82
2021/03/11 10:27:15;;;;;;;10.93;7.55;;;;;;;;;;5028812;28;20100;-84
2021/03/11 10:29:41;;;;;;;11.88;9.07;;;;;;;;;;5029180;28;20365;-85
2021/03/11 10:32:08;;;;;;;14.52;11.68;;;;;;;;;;5030764;28;20458;-81
2021/03/11 10:34:50;;;;;;;12.02;8.48;;;;;;;;;;5029240;28;20025;-82
2021/03/11 10:37:35;;;;;;;16.98;12.70;;;;;;;;;;5032243;28;20025;-81
2021/03/11 10:40:01;;;;;;;;;;;;;;;;;;5040660;28;20029;-81
2021/03/11 10:42:42;;;;;;;9.65;7.60;;;;;;;;;;5030982;28;19948;-79
2021/03/11 10:45:08;;;;;;;7.90;6.40;;;;;;;;;;5033907;28;20041;-82
2021/03/11 10:47:34;;;;;;;7.07;5.65;;;;;;;;;;5034494;28;20025;-82
2021/03/11 10:50:01;;;;;;;8.25;7.20;;;;;;;;;;5049252;28;20112;-80
2021/03/11 10:52:27;;;;;;;13.73;10.50;;;;;;;;;;5048826;28;20107;-80
2021/03/11 10:54:53;;;;;;;11.15;9.20;;;;;;;;;;5038003;28;20036;-83
2021/03/11 10:57:21;;;;;;;8.25;6.85;;;;;;;;;;5031322;28;20079;-83
2021/03/11 10:59:53;;;;;;;6.95;5.63;;;;;;;;;;5019081;28;20037;-80
2021/03/11 11:02:20;;;;;;;11.43;9.18;;;;;;;;;;5021143;28;20022;-84
2021/03/11 11:04:46;;;;;;;11.95;7.82;;;;;;;;;;5021541;28;20709;-84
2021/03/11 11:07:12;;;;;;;9.18;7.20;;;;;;;;;;5020682;28;20025;-80
2021/03/11 11:09:39;;;;;;;8.85;7.15;;;;;;;;;;5029636;28;20524;-83
2021/03/11 11:12:09;;;;;;;9.80;8.15;;;;;;;;;;5020835;28;20038;-78
2021/03/11 11:14:35;;;;;;;12.35;9.40;;;;;;;;;;5033925;28;20060;-82
2021/03/11 11:17:01;;;;;;;8.13;6.90;;;;;;;;;;5030634;28;20041;-79
2021/03/11 11:19:28;;;;;;;8.18;6.70;;;;;;;;;;5027603;28;20033;-80
2021/03/11 11:21:54;;;;;;;8.15;6.10;;;;;;;;;;5034096;28;20044;-82
2021/03/11 11:24:20;;;;;;;9.70;8.25;;;;;;;;;;5050124;28;20033;-79
2021/03/11 11:26:46;;;;;;;6.93;6.13;;;;;;;;;;5044249;28;20044;-81
2021/03/11 11:29:12;;;;;;;8.15;5.85;;;;;;;;;;5029633;28;20040;-78
2021/03/11 11:31:38;;;;;;;9.63;7.85;;;;;;;;;;5032680;28;20033;-81
2021/03/11 11:34:06;;;;;;;9.02;7.47;;;;;;;;;;5014246;28;20034;-84
2021/03/11 11:36:32;;;;;;;9.30;7.13;;;;;;;;;;5013714;28;20029;-79
2021/03/11 11:38:59;;;;;;;9.98;7.68;;;;;;;;;;5015916;28;20107;-80
2021/03/11 11:41:25;;;;;;;8.07;5.88;;;;;;;;;;5028271;28;20104;-81
2021/03/11 11:43:51;;;;;;;9.95;7.28;;;;;;;;;;5031446;28;20032;-80
2021/03/11 11:46:17;;;;;;;7.60;5.70;;;;;;;;;;5033030;28;20968;-77
2021/03/11 11:48:43;;;;;;;7.55;5.85;;;;;;;;;;5032798;28;20057;-80
2021/03/11 11:51:09;;;;;;;10.23;7.32;;;;;;;;;;5033726;28;20034;-81
2021/03/11 11:53:35;;;;;;;7.85;7.03;;;;;;;;;;5033476;28;20037;-83
2021/03/11 11:56:01;;;;;;;14.57;10.57;;;;;;;;;;5033216;28;20029;-81
2021/03/11 11:58:27;;;;;;;8.40;6.95;;;;;;;;;;5033279;28;20026;-81
2021/03/11 12:00:54;;;;;;;14.35;11.55;;;;;;;;;;5048021;28;20062;-80
2021/03/11 12:03:20;;;;;;;4.97;4.35;;;;;;;;;;5052940;28;20025;-80
2021/03/11 12:05:46;;;;;;;7.45;5.75;;;;;;;;;;5040771;28;20029;-80
2021/03/11 12:08:12;;;;;;;6.13;5.00;;;;;;;;;;5041142;28;20037;-81
2021/03/11 12:10:38;;;;;;;8.60;6.65;;;;;;;;;;5050573;28;20053;-81
2021/03/11 12:13:07;;;;;;;9.73;6.65;;;;;;;;;;5039744;28;20146;-81
2021/03/11 12:15:33;;;;;;;7.55;6.25;;;;;;;;;;5041615;28;20503;-79
2021/03/11 12:18:00;;;;;;;15.80;10.30;;;;;;;;;;5050419;28;20025;-80
2021/03/11 12:20:26;;;;;;;15.45;11.23;;;;;;;;;;5047641;28;20037;-79
2021/03/11 12:22:52;;;;;;;12.35;9.38;;;;;;;;;;5028711;28;20021;-82
2021/03/11 12:25:18;;;;;;;6.05;4.65;;;;;;;;;;5045915;28;20017;-80
2021/03/11 12:27:44;;;;;;;14.40;9.48;;;;;;;;;;5052343;28;20022;-81
2021/03/11 12:30:11;;;;;;;14.18;10.60;;;;;;;;;;5041172;28;20067;-80
2021/03/11 12:32:37;;;;;;;11.90;8.93;;;;;;;;;;5026298;28;20407;-79
2021/03/11 12:35:04;;;;;;;12.90;9.15;;;;;;;;;;5053534;28;20017;-80
2021/03/11 12:37:30;;;;;;;11.63;9.35;;;;;;;;;;5037264;28;20060;-79
2021/03/11 12:39:58;;;;;;;7.88;5.97;;;;;;;;;;5039467;28;20032;-78
2021/03/11 12:42:24;;;;;;;6.80;4.57;;;;;;;;;;5046384;28;20024;-80
2021/03/11 12:44:50;;;;;;;13.70;9.75;;;;;;;;;;5043729;28;20029;-80
2021/03/11 12:47:16;;;;;;;6.35;4.80;;;;;;;;;;5036157;28;20028;-80
2021/03/11 12:49:42;;;;;;;8.43;6.78;;;;;;;;;;5049640;28;20060;-80
2021/03/11 12:52:08;;;;;;;6.40;5.72;;;;;;;;;;5040555;28;20488;-79
2021/03/11 12:54:36;;;;;;;20.90;14.70;;;;;;;;;;5038542;28;20531;-81
2021/03/11 12:57:02;;;;;;;8.18;6.65;;;;;;;;;;5036031;28;20025;-77
2021/03/11 12:59:28;;;;;;;8.18;6.63;;;;;;;;;;5033145;28;20057;-81
2021/03/11 13:01:54;;;;;;;6.93;6.00;;;;;;;;;;5046326;28;20059;-79
2021/03/11 13:04:23;;;;;;;6.30;5.30;;;;;;;;;;5053009;28;20488;-81
2021/03/11 13:06:49;;;;;;;10.25;7.88;;;;;;;;;;5043824;28;20052;-81
2021/03/11 13:09:15;;;;;;;13.52;9.00;;;;;;;;;;5034664;28;20044;-85
2021/03/11 13:11:41;;;;;;;9.90;7.40;;;;;;;;;;5036247;28;20566;-80
2021/03/11 13:14:07;;;;;;;10.82;8.30;;;;;;;;;;5035810;28;20154;-83
2021/03/11 13:16:33;;;;;;;10.73;8.98;;;;;;;;;;5033334;28;20499;-81
2021/03/11 13:19:00;;;;;;;10.13;7.50;;;;;;;;;;5053249;28;20036;-83
2021/03/11 13:21:26;;;;;;;11.60;7.88;;;;;;;;;;5030935;28;20032;-81
2021/03/11 13:23:53;;;;;;;15.43;9.88;;;;;;;;;;5037525;28;20021;-79
2021/03/11 13:26:19;;;;;;;14.23;10.02;;;;;;;;;;5036480;28;20108;-80
2021/03/11 13:28:45;;;;;;;16.55;10.38;;;;;;;;;;5033683;28;20025;-83
2021/03/11 13:31:11;;;;;;;10.55;7.95;;;;;;;;;;5045330;28;20515;-83
2021/03/11 13:33:37;;;;;;;14.55;9.93;;;;;;;;;;5050658;28;20021;-80
2021/03/11 13:36:03;;;;;;;20.27;12.85;;;;;;;;;;5032756;28;20497;-80
2021/03/11 13:38:29;;;;;;;9.68;7.82;;;;;;;;;;5032303;28;20033;-79
2021/03/11 13:40:56;;;;;;;17.25;11.40;;;;;;;;;;5032735;28;20032;-79
2021/03/11 13:43:22;;;;;;;14.20;9.73;;;;;;;;;;5031414;28;20592;-81
2021/03/11 13:45:48;;;;;;;7.38;5.97;;;;;;;;;;5031631;28;20429;-81
2021/03/11 13:48:15;;;;;;;11.02;7.97;;;;;;;;;;5030960;28;20037;-82
2021/03/11 13:50:41;;;;;;;16.08;11.38;;;;;;;;;;5031085;28;20033;-81
2021/03/11 13:53:08;;;;;;;8.45;7.20;;;;;;;;;;5030756;28;20041;-81
2021/03/11 13:55:35;;;;;;;18.30;11.43;;;;;;;;;;5041003;28;20110;-79
2021/03/11 13:58:01;;;;;;;17.33;12.43;;;;;;;;;;5048336;28;20037;-81
2021/03/11 14:00:28;;;;;;;15.48;11.15;;;;;;;;;;5030831;28;20382;-81
2021/03/11 14:02:54;;;;;;;16.70;11.32;;;;;;;;;;5037506;28;20025;-81
2021/03/11 14:05:20;;;;;;;11.73;7.70;;;;;;;;;;5034630;28;20129;-83
2021/03/11 14:07:46;;;;;;;7.60;6.15;;;;;;;;;;5035747;28;20496;-81
2021/03/11 14:10:13;;;;;;;16.77;11.88;;;;;;;;;;5035904;28;20439;-80
2021/03/11 14:12:40;;;;;;;9.77;7.97;;;;;;;;;;5036486;28;20052;-81
2021/03/11 14:15:07;;;;;;;13.38;10.00;;;;;;;;;;5036986;28;20092;-82
2021/03/11 14:17:33;;;;;;;7.90;6.68;;;;;;;;;;5041039;28;20056;-82
2021/03/11 14:20:00;;;;;;;20.33;13.95;;;;;;;;;;5036850;28;20024;-81
2021/03/11 14:22:26;;;;;;;10.38;7.57;;;;;;;;;;5040561;28;20033;-82
2021/03/11 14:24:52;;;;;;;14.68;11.02;;;;;;;;;;5037866;28;20025;-83
2021/03/11 14:27:18;;;;;;;16.08;10.68;;;;;;;;;;5039567;28;20025;-82
2021/03/11 14:29:44;;;;;;;12.27;9.63;;;;;;;;;;5033059;28;20021;-81
2021/03/11 14:32:12;;;;;;;18.23;12.85;;;;;;;;;;5036321;28;20032;-84